AirNav   Duncan Aviation - Near you to keep you flying
 
 982 users online  

2KS6 Flying H Airport
Seneca, Kansas, USA

GOING TO SENECA?


FAA INFORMATION EFFECTIVE 30 DECEMBER 2021

Location

FAA Identifier: 2KS6
Lat/Long: 39-45-01.3650N 096-01-36.4200W
39-45.022750N 096-01.607000W
39.7503792,-96.0267833
(estimated)
Elevation: 1192 ft. / 363 m (estimated)
From city: 5 miles SE of SENECA, KS
Time zone: UTC -6 (UTC -5 during Daylight Saving Time)
Zip code: 66415

Airport Operations

Airport use: Private use. Permission required prior to landing
Activation date: 09/2013
Control tower: no
ARTCC: KANSAS CITY CENTER
FSS: WICHITA FLIGHT SERVICE STATION
Attendance: UNATNDD
Segmented circle: no

Airport Communications

WX AWOS-3P at K83 (15 nm NE): 118.475 (785-284-2201)

Nearby radio navigation aids

VOR radial/distance  VOR name  Freq  Var
PWEr158/28.2PAWNEE CITY VORTAC112.4005E

Airport Services

Fuel available: 100LL JET-A

Runway Information

Runway 18/36

Dimensions: 2700 x 50 ft. / 823 x 15 m
Surface: concrete
RUNWAY 18  RUNWAY 36
Latitude: 39-45.242500N39-44.803000N
Longitude: 096-01.562833W096-01.651167W
Elevation: 1181.0 ft.1191.0 ft.
Traffic pattern: rightleft

Airport Ownership and Management from official FAA records

Ownership: Privately-owned
Owner: HEINEN BROTHERS AGRA SERVICES
1226 104TH RD
SENECA, KS 66538
Phone 785-336-3877
Manager: SCOTT HEINEN
1226 104TH RD
SENECA, KS 66538
Phone 785-336-3877
VICE PRESIDENT

Airport Operational Statistics

Aircraft based on the field: 4
Single engine airplanes: 4
    

Additional Remarks

FOR CD CTC KANSAS CITY ARTCC AT 913-254-8508.

Instrument Procedures

There are no published instrument procedures at 2KS6.

Some nearby airports with instrument procedures:

KFNB - Brenner Field Airport (28 nm NE)
KMYZ - Marysville Municipal Airport (29 nm W)
0G3 - Tecumseh Municipal Airport (40 nm N)
K01 - Farington Field Airport (40 nm N)
K59 - Amelia Earhart Airport (41 nm E)
 
Loc | Ops | Rwys | IFR | FBO | Links
Com | Nav | Svcs | Stats | Notes
Aerial photo
No photo
 
Airport distance calculator
Flying to Flying H Airport? Find the distance to fly.

From to 2KS6

Sunrise and sunset
Times for 24-Jan-2022
 Local
(UTC-6)
 Zulu
(UTC)
Morning civil twilight07:1113:11
Sunrise07:4013:40
Sunset17:3323:33
Evening civil twilight18:0200:02

Current date and time
Zulu (UTC)  24-Jan-2022 13:52:00
Local (UTC-6)  24-Jan-2022 07:52:00
 
METAR
KFNB 
28nm NE 
241253Z AUTO 28007KT 10SM BKN110 04/M02 A2971 RMK AO2 SLP065 T00441022
KMYZ 
29nm W 
241335Z AUTO 00000KT 10SM SCT090 SCT120 05/M02 A2973 RMK AO2
KTOP 
45nm SE 
241253Z 29006KT 10SM CLR 07/M02 A2971 RMK AO2 SLP065 T00721022
KBIE 
46nm NW 
241335Z AUTO 27008KT 10SM CLR 03/M03 A2974 RMK AO2 T00251027
KMHK 
48nm SW 
241252Z 00000KT 10SM CLR 04/M03 A2974 RMK AO2 SLP076 T00391033
TAF
KTOP 
45nm SE 
241120Z 2412/2512 28007KT P6SM OVC150 FM241600 32013KT P6SM SCT150 FM241900 36014G21KT P6SM SCT025 OVC035 FM250000 02011KT P6SM BKN200
KMHK 
48nm SW 
241120Z 2412/2512 24008KT P6SM SCT120 FM241500 33010KT P6SM SCT150 FM241800 36012G18KT P6SM BKN035 FM250000 03008KT P6SM SCT040 BKN200
NOTAMs
Click for the latest NOTAMs
NOTAMs are issued by the DoD/FAA and will open in a separate window not controlled by AirNav.

 

 
 

Would you like to see your business listed on this page?

 If your business provides an interesting product or service to pilots, flight crews, aircraft, or users of the Flying H Airport, you should consider listing it here.  To start the listing process, click on the button below
 
Add a business
 

Other Pages about Flying H Airport

Update a link
 
Copyright © AirNav, LLC. All rights reserved. Privacy Policy  Contact